Time;durP1;ratioP1;P1;durP2;ratioP2;P2;SDS_P1;SDS_P2;PMS_P1;PMS_P2;Temp;Humidity;BMP_temperature;BMP_pressure;BME280_temperature;BME280_humidity;BME280_pressure;Samples;Min_cycle;Max_cycle;Signal;HPM_P1;HPM_P2
2022/04/27 00:02:30;;;;;;;15.68;8.25;;;;;;;5.27;92.52;102201.38;5342914;27;20118;-63
2022/04/27 00:05:02;;;;;;;13.13;8.43;;;;;;;5.28;93.02;102192.50;5337083;27;21417;-63
2022/04/27 00:07:33;;;;;;;13.15;8.57;;;;;;;5.17;92.63;102196.41;5347740;27;20033;-63
2022/04/27 00:10:05;;;;;;;14.10;8.25;;;;;;;5.25;92.86;102184.69;5342902;27;20087;-63
2022/04/27 00:12:37;;;;;;;14.35;8.75;;;;;;;5.23;94.16;102185.63;5348998;27;20113;-63
2022/04/27 00:15:09;;;;;;;15.65;9.35;;;;;;;5.20;95.56;102188.41;5345560;27;20045;-63
2022/04/27 00:17:41;;;;;;;14.15;9.45;;;;;;;5.18;95.02;102188.44;5353458;27;20939;-63
2022/04/27 00:20:12;;;;;;;13.93;9.07;;;;;;;5.13;94.95;102186.84;5347844;27;20061;-63
2022/04/27 00:22:43;;;;;;;13.98;9.35;;;;;;;4.93;93.79;102179.53;5343713;27;20425;-63
2022/04/27 00:25:16;;;;;;;14.70;8.75;;;;;;;4.99;95.21;102179.38;5339629;27;20061;-63
2022/04/27 00:27:47;;;;;;;12.82;8.43;;;;;;;5.03;96.00;102175.72;5342799;27;20076;-63
2022/04/27 00:30:19;;;;;;;14.23;8.45;;;;;;;4.96;94.97;102175.03;5345993;27;20169;-63
2022/04/27 00:32:50;;;;;;;17.95;9.48;;;;;;;4.95;95.32;102183.88;5348764;27;20122;-63
2022/04/27 00:35:21;;;;;;;15.95;9.20;;;;;;;4.89;95.48;102192.88;5348362;27;20042;-63
2022/04/27 00:37:53;;;;;;;12.43;8.73;;;;;;;4.94;96.39;102189.22;5352224;27;20074;-63
2022/04/27 00:40:24;;;;;;;13.05;8.85;;;;;;;4.77;95.50;102184.44;5345555;27;20116;-63
2022/04/27 00:42:55;;;;;;;12.32;9.23;;;;;;;4.76;95.06;102185.38;5350271;27;20031;-63
2022/04/27 00:45:26;;;;;;;12.80;8.45;;;;;;;4.77;95.12;102192.38;5348288;27;20026;-63
2022/04/27 00:47:58;;;;;;;13.18;8.82;;;;;;;4.73;96.07;102191.59;5355772;27;20062;-63
2022/04/27 00:50:29;;;;;;;13.55;8.55;;;;;;;4.63;95.95;102193.66;5354943;27;20432;-63
2022/04/27 00:53:01;;;;;;;14.73;8.52;;;;;;;4.59;95.75;102193.81;5350692;27;20409;-63
2022/04/27 00:55:32;;;;;;;13.98;9.23;;;;;;;4.54;96.18;102193.06;5341917;27;20039;-63
2022/04/27 00:58:05;;;;;;;12.82;8.90;;;;;;;4.38;96.46;102204.09;5348867;27;20147;-63
2022/04/27 01:00:36;;;;;;;13.10;9.60;;;;;;;4.31;96.69;102205.16;5343690;27;20027;-63
2022/04/27 01:03:08;;;;;;;15.10;9.98;;;;;;;4.28;97.16;102205.28;5352287;27;20392;-63
2022/04/27 01:05:41;;;;;;;14.13;9.35;;;;;;;4.21;97.28;102206.34;5341798;27;20555;-63
2022/04/27 01:08:15;;;;;;;13.73;9.02;;;;;;;4.17;97.49;102212.63;5346731;27;20477;-63
2022/04/27 01:10:47;;;;;;;15.35;9.65;;;;;;;4.09;97.67;102211.06;5347269;27;20085;-63
2022/04/27 01:13:18;;;;;;;15.70;9.57;;;;;;;4.17;98.30;102208.19;5345390;27;20030;-63
2022/04/27 01:15:50;;;;;;;15.23;9.95;;;;;;;4.05;98.07;102209.41;5347138;27;20090;-63
2022/04/27 01:18:21;;;;;;;14.68;10.38;;;;;;;4.12;99.05;102208.34;5353665;27;20081;-63
2022/04/27 01:20:52;;;;;;;14.63;10.43;;;;;;;4.01;98.96;102213.03;5354345;27;20090;-63
2022/04/27 01:23:24;;;;;;;17.67;10.20;;;;;;;4.06;99.79;102212.91;5342187;27;20027;-63
2022/04/27 01:26:05;;;;;;;15.38;10.30;;;;;;;4.00;99.83;102219.22;5352551;27;20023;-63
2022/04/27 01:28:38;;;;;;;14.45;9.48;;;;;;;4.00;100.00;102221.84;5348647;27;20501;-63
2022/04/27 01:31:11;;;;;;;17.17;10.90;;;;;;;3.85;99.66;102223.13;5351573;27;20023;-63
2022/04/27 01:33:42;;;;;;;17.10;10.35;;;;;;;3.86;100.00;102221.38;5346229;27;20283;-63
2022/04/27 01:36:13;;;;;;;18.17;10.75;;;;;;;3.76;99.96;102223.38;5350514;27;20111;-63
2022/04/27 01:38:45;;;;;;;17.65;11.18;;;;;;;3.83;100.00;102221.44;5350398;27;20388;-63
2022/04/27 01:41:16;;;;;;;17.13;12.23;;;;;;;3.86;100.00;102211.66;5347268;27;20035;-63
2022/04/27 01:43:47;;;;;;;18.85;11.63;;;;;;;3.68;100.00;102215.66;5350001;27;20026;-63
2022/04/27 01:46:19;;;;;;;17.67;11.27;;;;;;;3.64;100.00;102221.91;5340147;27;20022;-63
2022/04/27 01:48:50;;;;;;;17.33;11.20;;;;;;;3.63;100.00;102224.59;5354137;27;20030;-63
2022/04/27 01:54:14;;;;;;;16.75;11.18;;;;;;;3.55;100.00;102227.44;5351567;27;20026;-63
2022/04/27 01:54:16;;;;;;;20.45;11.23;;;;;;;3.57;100.00;102224.72;5344862;27;20125;-63
2022/04/27 01:56:50;;;;;;;18.95;11.85;;;;;;;3.49;100.00;102219.66;5347421;27;20045;-63
2022/04/27 01:59:21;;;;;;;21.48;12.55;;;;;;;3.61;100.00;102222.00;5342471;27;20049;-63
2022/04/27 02:01:53;;;;;;;16.73;11.77;;;;;;;3.58;100.00;102227.34;5345595;27;20023;-62
2022/04/27 02:04:24;;;;;;;19.63;12.00;;;;;;;3.60;100.00;102224.66;5345834;27;20031;-63
2022/04/27 02:06:56;;;;;;;18.80;12.30;;;;;;;3.54;100.00;102231.81;5343742;27;20035;-63
2022/04/27 02:09:27;;;;;;;18.48;12.48;;;;;;;3.39;100.00;102232.19;5350317;27;20138;-63
2022/04/27 02:11:58;;;;;;;22.10;12.10;;;;;;;3.37;100.00;102228.72;5340498;27;20042;-63
2022/04/27 02:14:29;;;;;;;19.42;12.55;;;;;;;3.38;100.00;102234.91;5344872;27;20076;-63
2022/04/27 02:17:00;;;;;;;19.42;13.25;;;;;;;3.36;100.00;102234.03;5346867;27;20027;-63
2022/04/27 02:19:32;;;;;;;22.38;12.90;;;;;;;3.42;100.00;102228.63;5353031;27;20042;-63
2022/04/27 02:22:04;;;;;;;17.48;12.70;;;;;;;3.48;100.00;102234.63;5351802;27;20490;-63
2022/04/27 02:24:36;;;;;;;18.63;13.07;;;;;;;3.46;100.00;102241.72;5348825;27;20027;-63
2022/04/27 02:27:07;;;;;;;23.25;13.43;;;;;;;3.39;100.00;102237.47;5343806;27;20042;-63
2022/04/27 02:29:38;;;;;;;19.02;12.98;;;;;;;3.48;100.00;102242.53;5343255;27;20035;-63
2022/04/27 02:32:10;;;;;;;21.70;14.02;;;;;;;3.47;100.00;102243.47;5342322;27;20070;-63
2022/04/27 02:34:42;;;;;;;22.90;13.95;;;;;;;3.47;100.00;102239.94;5345937;27;20031;-63
2022/04/27 02:37:13;;;;;;;23.92;13.43;;;;;;;3.57;100.00;102243.22;5343696;27;20396;-63
2022/04/27 02:39:45;;;;;;;22.75;13.45;;;;;;;3.56;100.00;102245.00;5346908;27;20042;-63
2022/04/27 02:42:17;;;;;;;19.08;12.95;;;;;;;3.63;100.00;102245.72;5345404;27;20031;-63
2022/04/27 02:44:49;;;;;;;17.80;12.48;;;;;;;3.58;100.00;102251.09;5344273;27;20031;-63
2022/04/27 02:47:20;;;;;;;23.52;14.73;;;;;;;3.54;100.00;102254.72;5343638;27;20245;-63
2022/04/27 02:52:41;;;;;;;20.80;12.85;;;;;;;3.56;100.00;102254.69;5351334;27;20042;-63
2022/04/27 02:55:12;;;;;;;20.48;13.48;;;;;;;3.63;100.00;102258.91;5354238;27;20672;-63
2022/04/27 02:57:44;;;;;;;18.92;13.38;;;;;;;3.52;100.00;102257.38;5343651;27;20521;-63
2022/04/27 03:00:16;;;;;;;19.40;13.35;;;;;;;3.54;100.00;102260.00;5347954;27;20377;-63
2022/04/27 03:02:47;;;;;;;19.73;13.52;;;;;;;3.57;100.00;102259.03;5347469;27;20687;-63
2022/04/27 03:05:18;;;;;;;23.15;13.98;;;;;;;3.39;100.00;102257.72;5342370;27;20038;-63
2022/04/27 03:07:50;;;;;;;19.58;13.10;;;;;;;3.31;100.00;102256.13;5339521;27;20365;-63
2022/04/27 03:10:21;;;;;;;22.90;14.27;;;;;;;3.27;100.00;102256.25;5345072;27;20420;-63
2022/04/27 03:12:52;;;;;;;20.80;14.20;;;;;;;3.19;100.00;102259.06;5345199;27;20480;-63
2022/04/27 03:15:24;;;;;;;21.80;13.95;;;;;;;3.24;100.00;102254.56;5345061;27;20038;-63
2022/04/27 03:20:48;;;;;;;21.70;14.73;;;;;;;3.18;100.00;102259.09;5347044;27;20066;-63
2022/04/27 03:23:19;;;;;;;23.38;15.13;;;;;;;3.13;100.00;102264.47;5354147;27;20043;-63
2022/04/27 03:25:50;;;;;;;25.30;14.25;;;;;;;3.18;100.00;102267.00;5354121;27;20079;-63
2022/04/27 03:28:22;;;;;;;23.42;14.73;;;;;;;3.02;100.00;102269.97;5347023;27;20036;-63
2022/04/27 03:30:53;;;;;;;20.13;14.27;;;;;;;3.10;100.00;102262.75;5345251;27;20058;-63
2022/04/27 03:33:24;;;;;;;20.95;15.23;;;;;;;3.12;100.00;102268.00;5343003;27;20039;-63
2022/04/27 03:35:56;;;;;;;22.88;14.85;;;;;;;3.06;100.00;102260.25;5343499;27;20026;-63
2022/04/27 03:38:27;;;;;;;23.52;15.40;;;;;;;3.05;100.00;102259.38;5345921;27;20035;-63
2022/04/27 03:40:58;;;;;;;20.88;15.00;;;;;;;3.10;100.00;102269.81;5354040;27;20035;-63
2022/04/27 03:43:30;;;;;;;19.73;14.43;;;;;;;3.04;100.00;102262.03;5348942;27;20561;-63
2022/04/27 03:46:02;;;;;;;22.52;15.10;;;;;;;3.04;100.00;102265.53;5349448;27;20031;-63
2022/04/27 03:48:33;;;;;;;21.67;14.93;;;;;;;3.04;100.00;102267.31;5350869;27;20039;-63
2022/04/27 03:51:04;;;;;;;21.33;15.55;;;;;;;2.91;100.00;102271.97;5352151;27;20099;-63
2022/04/27 03:53:36;;;;;;;25.40;16.48;;;;;;;2.99;100.00;102269.19;5355692;27;20031;-63
2022/04/27 03:56:07;;;;;;;25.00;16.30;;;;;;;2.84;100.00;102276.53;5355329;27;20469;-63
2022/04/27 03:58:39;;;;;;;24.75;16.63;;;;;;;2.84;100.00;102280.91;5352386;27;20121;-63
2022/04/27 04:01:10;;;;;;;22.33;16.70;;;;;;;2.78;100.00;102289.84;5355865;27;20026;-63
2022/04/27 04:03:41;;;;;;;24.17;16.45;;;;;;;2.78;100.00;102286.31;5346698;27;20083;-63
2022/04/27 04:06:12;;;;;;;22.42;15.90;;;;;;;2.83;100.00;102287.09;5349492;27;20031;-63
2022/04/27 04:08:44;;;;;;;23.83;16.83;;;;;;;2.77;100.00;102289.88;5346992;27;20411;-63
2022/04/27 04:11:15;;;;;;;26.75;16.08;;;;;;;2.73;100.00;102287.28;5346901;27;20475;-63
2022/04/27 04:13:47;;;;;;;24.77;16.88;;;;;;;2.78;100.00;102299.50;5354661;27;20589;-63
2022/04/27 04:16:18;;;;;;;25.73;16.05;;;;;;;2.74;100.00;102306.59;5347812;27;20049;-63
2022/04/27 04:18:49;;;;;;;22.02;16.17;;;;;;;2.74;100.00;102303.94;5352684;27;20051;-63
2022/04/27 04:21:20;;;;;;;25.75;16.73;;;;;;;2.68;100.00;102302.31;5359038;27;20034;-63
2022/04/27 04:23:52;;;;;;;24.40;16.27;;;;;;;2.73;100.00;102303.09;5354047;27;20445;-63
2022/04/27 04:29:13;;;;;;;28.85;16.52;;;;;;;2.70;100.00;102303.19;5357874;27;20070;-63
2022/04/27 04:31:44;;;;;;;21.20;15.80;;;;;;;2.69;100.00;102317.25;5354850;27;20117;-63
2022/04/27 04:34:15;;;;;;;24.73;16.17;;;;;;;2.65;100.00;102309.44;5355129;27;20027;-63
2022/04/27 04:36:46;;;;;;;26.58;15.95;;;;;;;2.71;100.00;102323.34;5350931;27;20035;-63
2022/04/27 04:39:18;;;;;;;25.05;15.93;;;;;;;2.64;100.00;102316.44;5354750;27;20030;-63
2022/04/27 04:41:49;;;;;;;25.73;17.13;;;;;;;2.67;100.00;102323.44;5358619;27;20488;-63
2022/04/27 04:44:20;;;;;;;25.58;17.70;;;;;;;2.69;100.00;102326.91;5347794;27;20030;-63
2022/04/27 04:46:52;;;;;;;26.13;17.58;;;;;;;2.66;100.00;102325.19;5353450;27;20029;-63
2022/04/27 04:49:23;;;;;;;28.70;18.35;;;;;;;2.57;100.00;102332.41;5352841;27;20101;-63
2022/04/27 04:51:54;;;;;;;26.98;17.85;;;;;;;2.55;100.00;102333.31;5352839;27;20033;-63
2022/04/27 04:54:25;;;;;;;26.90;17.30;;;;;;;2.50;100.00;102339.56;5353875;27;20057;-63
2022/04/27 04:56:57;;;;;;;26.88;18.00;;;;;;;2.49;100.00;102338.72;5353899;27;20503;-63
2022/04/27 04:59:28;;;;;;;27.25;18.35;;;;;;;2.49;100.00;102333.44;5351233;27;20721;-63
2022/04/27 05:01:59;;;;;;;29.00;18.42;;;;;;;2.52;100.00;102332.50;5353110;27;20058;-63
2022/04/27 05:04:30;;;;;;;28.58;19.50;;;;;;;2.54;100.00;102342.09;5351481;27;20034;-63
2022/04/27 05:07:02;;;;;;;30.38;18.45;;;;;;;2.58;100.00;102347.34;5355551;27;20083;-63
2022/04/27 05:09:33;;;;;;;29.67;19.38;;;;;;;2.56;100.00;102336.81;5352330;27;20034;-63
2022/04/27 05:12:05;;;;;;;29.00;18.52;;;;;;;2.61;100.00;102345.50;5350911;27;20098;-63
2022/04/27 05:14:36;;;;;;;29.50;19.88;;;;;;;2.64;100.00;102349.84;5350491;27;20030;-63
2022/04/27 05:17:07;;;;;;;32.67;19.55;;;;;;;2.64;100.00;102347.22;5353277;27;20030;-63
2022/04/27 05:19:39;;;;;;;30.23;18.73;;;;;;;2.65;100.00;102349.81;5352724;27;20039;-63
2022/04/27 05:22:10;;;;;;;28.25;17.98;;;;;;;2.73;100.00;102355.81;5352147;27;20089;-63
2022/04/27 05:24:41;;;;;;;30.35;19.70;;;;;;;2.70;100.00;102355.00;5352354;27;20541;-63
2022/04/27 05:27:13;;;;;;;29.85;19.83;;;;;;;2.73;100.00;102355.81;5353759;27;20057;-63
2022/04/27 05:32:41;;;;;;;30.15;18.73;;;;;;;2.90;100.00;102371.28;5346535;27;20130;-63
2022/04/27 05:35:13;;;;;;;29.13;19.25;;;;;;;2.99;100.00;102369.38;5350256;27;20026;-63
2022/04/27 05:37:44;;;;;;;30.10;17.35;;;;;;;2.98;100.00;102372.91;5361693;27;20058;-63
2022/04/27 05:40:15;;;;;;;30.98;18.33;;;;;;;3.07;100.00;102384.16;5354704;27;20048;-63
2022/04/27 05:42:48;;;;;;;27.88;17.60;;;;;;;3.15;100.00;102384.00;5350982;27;20054;-63
2022/04/27 05:45:19;;;;;;;25.50;17.85;;;;;;;3.22;100.00;102380.34;5355280;27;20280;-63
2022/04/27 05:47:50;;;;;;;27.17;17.95;;;;;;;3.27;100.00;102378.44;5354060;27;20417;-63
2022/04/27 05:50:22;;;;;;;23.65;16.15;;;;;;;3.35;100.00;102380.91;5353005;27;20105;-63
2022/04/27 05:52:56;;;;;;;25.08;16.95;;;;;;;3.37;100.00;102380.88;5349583;27;20034;-63
2022/04/27 05:55:27;;;;;;;29.67;16.83;;;;;;;3.44;100.00;102386.00;5353891;27;20027;-63
2022/04/27 05:57:59;;;;;;;31.73;17.10;;;;;;;3.50;100.00;102380.56;5354362;27;20483;-63
2022/04/27 06:00:31;;;;;;;26.33;16.73;;;;;;;3.61;100.00;102393.53;5349301;27;20057;-63
2022/04/27 06:03:03;;;;;;;24.98;16.25;;;;;;;3.69;100.00;102383.66;5348745;27;20121;-63
2022/04/27 06:05:34;;;;;;;27.65;16.38;;;;;;;3.80;100.00;102385.22;5354758;27;20433;-63
2022/04/27 06:08:06;;;;;;;23.02;15.18;;;;;;;3.89;100.00;102385.88;5353749;27;20019;-63
2022/04/27 06:10:38;;;;;;;21.30;14.40;;;;;;;3.95;100.00;102392.78;5350646;27;20058;-63
2022/04/27 06:13:09;;;;;;;23.00;14.38;;;;;;;4.10;100.00;102394.16;5355257;27;20149;-63
2022/04/27 06:15:40;;;;;;;21.08;13.43;;;;;;;4.21;100.00;102385.97;5351406;27;20031;-63
2022/04/27 06:18:11;;;;;;;21.27;14.63;;;;;;;4.40;100.00;102402.25;5351643;27;20493;-63
2022/04/27 06:20:43;;;;;;;19.73;13.60;;;;;;;4.45;100.00;102398.56;5349836;27;20030;-63
2022/04/27 06:23:14;;;;;;;21.23;12.77;;;;;;;4.60;100.00;102405.25;5346367;27;20030;-63
2022/04/27 06:25:49;;;;;;;16.90;12.10;;;;;;;4.66;100.00;102402.44;5350229;27;20030;-63
2022/04/27 06:28:20;;;;;;;18.95;12.27;;;;;;;4.82;100.00;102402.00;5354173;27;20019;-63
2022/04/27 06:30:52;;;;;;;19.55;12.73;;;;;;;4.94;100.00;102404.31;5351875;27;20068;-63
2022/04/27 06:33:23;;;;;;;18.88;12.52;;;;;;;4.99;100.00;102409.50;5348590;27;20131;-63
2022/04/27 06:35:54;;;;;;;20.38;13.00;;;;;;;5.10;100.00;102415.31;5351207;27;20037;-63
2022/04/27 06:38:25;;;;;;;19.08;13.43;;;;;;;5.21;100.00;102417.66;5329312;27;20026;-63
2022/04/27 06:40:57;;;;;;;19.25;12.27;;;;;;;5.38;100.00;102415.41;5347285;27;20030;-63
2022/04/27 06:43:28;;;;;;;17.30;12.40;;;;;;;5.40;100.00;102423.28;5352322;27;20027;-63
2022/04/27 06:46:00;;;;;;;19.80;12.48;;;;;;;5.61;100.00;102422.66;5347711;27;20075;-63
2022/04/27 06:48:32;;;;;;;22.15;13.65;;;;;;;5.74;100.00;102417.00;5351211;27;20669;-63
2022/04/27 06:51:04;;;;;;;18.90;12.88;;;;;;;5.84;100.00;102426.38;5348911;27;20113;-63
2022/04/27 06:53:36;;;;;;;19.70;12.48;;;;;;;5.94;99.71;102433.09;5347708;27;20026;-63
2022/04/27 06:56:08;;;;;;;18.02;11.95;;;;;;;6.05;99.80;102432.81;5352865;27;20085;-63
2022/04/27 06:58:39;;;;;;;15.95;11.82;;;;;;;6.15;98.33;102430.72;5347960;27;20114;-63
2022/04/27 07:01:11;;;;;;;18.45;12.77;;;;;;;6.32;98.65;102436.34;5359313;27;20091;-63
2022/04/27 07:03:43;;;;;;;16.73;11.48;;;;;;;6.35;98.06;102441.56;5353513;27;20029;-63
2022/04/27 07:06:14;;;;;;;21.27;11.82;;;;;;;6.55;97.18;102434.72;5350978;27;20019;-63
2022/04/27 07:08:46;;;;;;;19.02;11.75;;;;;;;6.60;97.37;102438.09;5357695;27;20437;-63
2022/04/27 07:11:17;;;;;;;16.90;11.07;;;;;;;6.72;96.51;102437.66;5354235;27;21796;-63
2022/04/27 07:13:48;;;;;;;17.80;10.57;;;;;;;6.82;95.36;102439.06;5357385;27;20045;-63
2022/04/27 07:16:20;;;;;;;14.52;10.70;;;;;;;6.91;94.01;102437.03;5345753;27;20433;-63
2022/04/27 07:18:53;;;;;;;15.82;10.52;;;;;;;7.10;92.95;102451.34;5351662;27;20074;-63
2022/04/27 07:21:24;;;;;;;16.70;10.07;;;;;;;7.18;92.47;102446.63;5362199;27;20091;-63
2022/04/27 07:23:57;;;;;;;14.77;10.55;;;;;;;7.34;92.54;102446.06;5351596;27;20055;-63
2022/04/27 07:26:29;;;;;;;15.82;10.88;;;;;;;7.46;90.73;102450.94;5350562;27;20381;-63
2022/04/27 07:29:01;;;;;;;18.35;10.50;;;;;;;7.51;90.55;102451.59;5350759;27;20054;-63
2022/04/27 07:31:32;;;;;;;13.68;10.88;;;;;;;7.73;90.48;102456.09;5356483;27;20040;-63
2022/04/27 07:34:03;;;;;;;16.67;9.13;;;;;;;7.84;88.61;102459.19;5360829;27;20468;-63
2022/04/27 07:36:35;;;;;;;14.88;9.90;;;;;;;8.00;87.72;102463.00;5360929;27;20066;-63
2022/04/27 07:39:06;;;;;;;14.77;9.85;;;;;;;8.14;88.42;102459.78;5352386;27;20039;-63
2022/04/27 07:41:37;;;;;;;12.45;9.18;;;;;;;8.15;85.29;102456.22;5351487;27;20031;-63
2022/04/27 07:44:08;;;;;;;12.27;8.98;;;;;;;8.35;82.55;102460.69;5357128;27;20039;-63
2022/04/27 07:46:40;;;;;;;11.95;7.70;;;;;;;8.48;80.59;102461.09;5360757;27;20026;-63
2022/04/27 07:49:11;;;;;;;10.98;7.90;;;;;;;8.54;80.70;102460.84;5358808;27;20118;-63
2022/04/27 07:51:43;;;;;;;13.90;7.60;;;;;;;8.63;80.44;102460.47;5362328;27;20061;-63
2022/04/27 07:54:14;;;;;;;15.45;8.05;;;;;;;8.59;79.76;102463.28;5359230;27;20058;-63
2022/04/27 07:56:45;;;;;;;14.15;8.02;;;;;;;8.82;78.21;102470.28;5360414;27;20033;-63
2022/04/27 07:59:16;;;;;;;9.07;6.13;;;;;;;8.94;76.12;102475.09;5350151;27;20032;-63
2022/04/27 08:01:48;;;;;;;9.63;5.97;;;;;;;8.98;77.64;102475.84;5357246;27;20034;-63
2022/04/27 08:04:19;;;;;;;11.43;6.30;;;;;;;9.14;76.80;102466.22;5359293;27;20027;-63
2022/04/27 08:06:50;;;;;;;6.03;2.95;;;;;;;9.14;70.79;102471.56;5356865;27;20022;-63
2022/04/27 08:09:21;;;;;;;6.80;2.60;;;;;;;9.30;64.97;102474.41;5353189;27;20030;-63
2022/04/27 08:11:54;;;;;;;6.22;3.90;;;;;;;9.35;65.96;102475.06;5362350;27;20033;-63
2022/04/27 08:14:25;;;;;;;10.07;5.15;;;;;;;9.45;65.81;102474.66;5357762;27;20066;-63
2022/04/27 08:16:58;;;;;;;6.88;2.42;;;;;;;9.53;63.56;102481.38;5353435;27;20117;-63
2022/04/27 08:19:30;;;;;;;5.53;2.60;;;;;;;9.52;64.68;102481.44;5357337;27;20042;-63
2022/04/27 08:22:02;;;;;;;6.32;3.70;;;;;;;9.62;64.83;102483.59;5358634;27;20495;-63
2022/04/27 08:24:38;;;;;;;9.13;4.30;;;;;;;9.88;67.05;102486.00;5356532;27;20067;-63
2022/04/27 08:27:09;;;;;;;7.78;4.47;;;;;;;9.84;66.68;102485.28;5358411;27;20030;-63
2022/04/27 08:29:41;;;;;;;7.43;4.93;;;;;;;10.07;66.83;102488.63;5362051;27;20092;-63
2022/04/27 08:32:12;;;;;;;8.70;5.03;;;;;;;10.16;65.17;102491.75;5350831;27;20492;-63
2022/04/27 08:34:43;;;;;;;10.02;5.55;;;;;;;10.16;67.43;102493.53;5361943;27;20536;-63
2022/04/27 08:37:14;;;;;;;7.95;5.15;;;;;;;10.20;64.05;102490.66;5363974;27;20042;-63
2022/04/27 08:39:46;;;;;;;10.30;6.40;;;;;;;10.16;62.29;102491.75;5350654;27;20404;-63
2022/04/27 08:42:17;;;;;;;9.70;5.65;;;;;;;10.29;63.30;102491.13;5358411;27;20070;-63
2022/04/27 08:44:48;;;;;;;8.27;4.93;;;;;;;10.42;63.93;102494.97;5358653;27;20039;-63
2022/04/27 08:47:23;;;;;;;7.65;5.20;;;;;;;10.66;62.46;102492.00;5359550;27;20030;-63
2022/04/27 08:49:55;;;;;;;;;;;;;;;10.68;67.69;102492.78;5351302;27;20034;-63
2022/04/27 08:52:26;;;;;;;8.73;5.10;;;;;;;10.63;61.60;102497.50;5360356;27;19911;-63
2022/04/27 08:54:59;;;;;;;7.45;4.38;;;;;;;10.86;60.60;102497.19;5360322;27;20027;-63
2022/04/27 08:57:30;;;;;;;8.05;4.97;;;;;;;10.74;62.88;102505.84;5360105;27;20109;-63
2022/04/27 09:00:07;;;;;;;8.65;5.05;;;;;;;10.77;59.57;102505.66;5365935;27;20109;-63
2022/04/27 09:02:38;;;;;;;9.10;4.90;;;;;;;10.96;62.42;102494.91;5334243;27;20458;-63
2022/04/27 09:05:21;;;;;;;8.18;5.00;;;;;;;11.02;60.29;102499.94;5354629;27;20023;-63
2022/04/27 09:07:53;;;;;;;9.20;4.85;;;;;;;11.26;58.51;102502.28;5353904;27;20030;-63
2022/04/27 09:10:25;;;;;;;6.85;4.53;;;;;;;11.30;58.69;102503.84;5348998;27;20038;-63
2022/04/27 09:12:57;;;;;;;8.98;4.88;;;;;;;11.34;57.07;102506.25;5364642;27;20380;-63
2022/04/27 09:15:28;;;;;;;7.97;4.90;;;;;;;11.47;57.51;102505.63;5354467;27;20398;-63
2022/04/27 09:21:00;;;;;;;7.45;4.82;;;;;;;11.38;55.92;102507.81;5362330;27;20084;-63
2022/04/27 09:23:37;;;;;;;9.85;5.30;;;;;;;11.34;57.25;102511.59;5358389;27;20026;-64
2022/04/27 09:26:15;;;;;;;7.40;4.47;;;;;;;11.55;54.69;102506.06;5355168;27;20129;-63
2022/04/27 09:28:50;;;;;;;8.68;5.10;;;;;;;11.40;56.43;102509.56;5363028;27;20670;-63
2022/04/27 09:31:29;;;;;;;8.93;5.18;;;;;;;11.54;57.69;102502.53;5358642;27;20401;-63
2022/04/27 09:34:27;;;;;;;8.23;4.85;;;;;;;11.68;54.67;102503.59;5355778;27;20419;-64
2022/04/27 09:37:02;;;;;;;7.55;4.70;;;;;;;11.77;54.03;102500.41;5353467;27;20031;-63
2022/04/27 09:39:34;;;;;;;10.07;5.93;;;;;;;11.74;55.17;102505.94;5359486;27;20494;-64
2022/04/27 09:42:08;;;;;;;7.35;5.50;;;;;;;11.62;53.14;102509.25;5356443;27;20086;-64
2022/04/27 09:44:40;;;;;;;;;;;;;;;11.75;58.78;102510.31;5364055;27;20038;-64
2022/04/27 09:47:12;;;;;;;8.45;5.32;;;;;;;11.76;54.00;102509.38;5359536;27;20356;-64
2022/04/27 09:49:46;;;;;;;8.10;6.03;;;;;;;11.60;53.93;102505.81;5348820;27;20042;-63
2022/04/27 09:52:18;;;;;;;9.10;6.28;;;;;;;11.67;56.25;102510.72;5355034;27;20030;-64
2022/04/27 09:54:51;;;;;;;11.18;5.93;;;;;;;11.66;56.28;102500.13;5363600;27;20026;-63
2022/04/27 09:57:23;;;;;;;8.35;5.47;;;;;;;11.79;55.78;102509.19;5359561;27;20145;-64
2022/04/27 09:59:55;;;;;;;10.60;6.30;;;;;;;11.93;57.19;102500.47;5361711;27;20038;-64
2022/04/27 10:02:30;;;;;;;14.20;6.53;;;;;;;12.20;54.50;102503.41;5360614;27;20027;-64
2022/04/27 10:05:02;;;;;;;9.15;6.13;;;;;;;12.09;52.90;102503.13;5361474;27;20046;-64
2022/04/27 10:07:35;;;;;;;9.30;6.78;;;;;;;12.26;51.97;102504.84;5358458;27;20018;-64
2022/04/27 10:10:07;;;;;;;9.50;5.82;;;;;;;12.15;53.02;102500.09;5360088;27;20380;-64
2022/04/27 10:12:39;;;;;;;7.22;6.05;;;;;;;12.13;52.24;102505.53;5354732;27;20506;-64
2022/04/27 10:15:10;;;;;;;10.85;6.70;;;;;;;12.25;53.45;102511.16;5361894;27;20022;-64
2022/04/27 10:17:41;;;;;;;8.07;6.30;;;;;;;12.54;53.63;102496.97;5355594;27;20108;-64
2022/04/27 10:20:27;;;;;;;10.00;6.72;;;;;;;12.43;53.11;102502.06;5363009;27;20375;-64
2022/04/27 10:23:19;;;;;;;7.57;5.90;;;;;;;12.61;53.56;102493.91;5349570;27;20027;-64
2022/04/27 10:26:28;;;;;;;9.38;6.22;;;;;;;12.64;52.87;102489.25;5362198;27;20035;-64
2022/04/27 10:29:06;;;;;;;11.13;6.68;;;;;;;12.60;51.12;102493.06;5359272;27;20041;-64
2022/04/27 10:31:40;;;;;;;10.35;6.90;;;;;;;12.57;50.89;102495.06;5356596;27;20530;-64
2022/04/27 10:34:19;;;;;;;9.80;7.10;;;;;;;12.68;51.38;102495.28;5362017;27;20087;-64
2022/04/27 10:36:55;;;;;;;10.45;7.30;;;;;;;12.56;51.74;102491.53;5336982;27;20031;-64
2022/04/27 10:39:30;;;;;;;9.93;7.25;;;;;;;12.59;52.17;102485.97;5354476;27;20033;-64
2022/04/27 10:42:04;;;;;;;12.20;7.68;;;;;;;12.76;55.22;102490.34;5353718;27;20484;-64
2022/04/27 10:44:47;;;;;;;10.20;7.10;;;;;;;12.82;52.82;102481.94;5357899;27;20030;-64
2022/04/27 10:47:20;;;;;;;10.35;6.57;;;;;;;12.75;50.63;102480.56;5351994;27;20022;-65
2022/04/27 10:50:10;;;;;;;9.15;6.45;;;;;;;12.78;52.41;102483.06;5358130;27;20035;-64
2022/04/27 10:52:43;;;;;;;10.98;6.75;;;;;;;12.63;49.77;102484.84;5341845;27;20026;-64
2022/04/27 10:55:37;;;;;;;9.93;7.00;;;;;;;12.72;53.33;102484.28;5346766;27;20460;-64
2022/04/27 10:58:34;;;;;;;9.63;7.05;;;;;;;12.88;51.10;102478.03;5356598;27;20804;-64
2022/04/27 11:01:11;;;;;;;11.57;7.50;;;;;;;13.06;50.66;102478.72;5353392;27;20026;-65
2022/04/27 11:03:43;;;;;;;11.80;7.32;;;;;;;13.10;49.42;102481.13;5346496;27;20037;-64
2022/04/27 11:06:16;;;;;;;8.93;6.70;;;;;;;13.20;49.10;102475.22;5351592;27;20031;-64
2022/04/27 11:09:09;;;;;;;10.32;6.85;;;;;;;13.48;51.53;102475.25;5355598;27;20078;-64
2022/04/27 11:11:51;;;;;;;10.93;6.97;;;;;;;13.55;51.85;102475.72;5349544;27;21157;-64
2022/04/27 11:14:31;;;;;;;9.35;6.43;;;;;;;13.51;49.30;102483.09;5359557;27;20018;-64
2022/04/27 11:17:04;;;;;;;11.43;6.20;;;;;;;13.78;49.31;102476.94;5354121;27;20023;-64
2022/04/27 11:19:36;;;;;;;10.30;6.55;;;;;;;13.72;48.66;102482.69;5356340;27;20090;-64
2022/04/27 11:22:15;;;;;;;7.72;5.93;;;;;;;13.38;48.74;102481.28;5355892;27;20480;-64
2022/04/27 11:24:48;;;;;;;9.02;6.45;;;;;;;13.26;51.09;102481.03;5344647;27;20037;-64
2022/04/27 11:27:26;;;;;;;7.25;6.18;;;;;;;13.13;50.69;102477.38;5357859;27;20026;-64
2022/04/27 11:29:58;;;;;;;10.25;6.78;;;;;;;13.18;49.64;102477.13;5352751;27;20168;-64
2022/04/27 11:32:29;;;;;;;10.45;7.07;;;;;;;13.18;49.88;102475.31;5350253;27;20030;-64
2022/04/27 11:35:00;;;;;;;8.73;6.05;;;;;;;13.46;49.40;102473.59;5355906;27;20030;-64
2022/04/27 11:37:36;;;;;;;10.02;6.55;;;;;;;13.49;49.51;102466.22;5346736;27;20074;-64
2022/04/27 11:40:13;;;;;;;9.85;6.53;;;;;;;13.54;49.37;102474.00;5351806;27;20114;-64
2022/04/27 11:42:48;;;;;;;11.00;7.05;;;;;;;13.72;50.09;102464.78;5349550;27;20072;-63
2022/04/27 11:45:21;;;;;;;10.95;6.55;;;;;;;13.86;48.46;102468.38;5352261;27;20148;-64
2022/04/27 11:48:04;;;;;;;10.80;7.28;;;;;;;14.13;49.82;102468.41;5355957;27;20027;-63
2022/04/27 11:50:38;;;;;;;10.70;6.45;;;;;;;14.00;48.59;102473.75;5351238;27;20031;-64
2022/04/27 11:53:11;;;;;;;9.30;5.93;;;;;;;13.90;46.94;102475.28;5355047;27;20071;-66
2022/04/27 11:55:49;;;;;;;9.73;5.68;;;;;;;13.97;48.07;102478.44;5357664;27;20071;-64
2022/04/27 11:58:21;;;;;;;9.70;6.63;;;;;;;13.89;47.67;102474.44;5358745;27;20035;-63